Time;durP1;ratioP1;P1;durP2;ratioP2;P2;SDS_P1;SDS_P2;PMS_P1;PMS_P2;Temp;Humidity;BMP_temperature;BMP_pressure;BME280_temperature;BME280_humidity;BME280_pressure;Samples;Min_cycle;Max_cycle;Signal;HPM_P1;HPM_P2
2021/11/04 00:00:57;;;;;;;0.38;0.00;;;6.00;99.90;;;;;;25708939;23;20013;-50
2021/11/04 00:11:00;;;;;;;0.20;0.10;;;6.10;99.90;;;;;;25684191;23;20016;-53
2021/11/04 00:21:03;;;;;;;0.00;0.00;;;6.00;99.90;;;;;;25659298;23;20099;-50
2021/11/04 00:31:06;;;;;;;0.00;0.00;;;6.00;99.90;;;;;;25710495;23;20166;-51
2021/11/04 00:41:09;;;;;;;0.00;0.00;;;6.00;99.90;;;;;;25659133;23;20103;-51
2021/11/04 00:51:12;;;;;;;0.00;0.00;;;6.10;99.90;;;;;;25658541;23;20063;-54
2021/11/04 01:01:16;;;;;;;23.35;1.17;;;6.10;99.90;;;;;;25683129;23;20012;-52
2021/11/04 01:11:22;;;;;;;135.05;5.32;;;6.10;99.90;;;;;;25715651;23;20012;-51
2021/11/04 01:21:25;;;;;;;102.70;3.30;;;6.10;99.90;;;;;;25704262;23;20096;-51
2021/11/04 01:31:27;;;;;;;140.63;3.13;;;6.10;99.90;;;;;;25714221;23;20017;-51
2021/11/04 01:41:30;;;;;;;0.77;0.10;;;5.80;99.90;;;;;;25689380;23;20052;-51
2021/11/04 01:51:33;;;;;;;0.65;0.00;;;5.70;99.90;;;;;;25715460;23;20009;-50
2021/11/04 02:01:36;;;;;;;0.00;0.00;;;5.30;99.90;;;;;;25688530;23;20450;-50
2021/11/04 02:11:54;;;;;;;0.00;0.00;;;4.90;99.90;;;;;;25712995;23;20075;-52
2021/11/04 02:22:01;;;;;;;0.00;0.00;;;4.70;99.90;;;;;;25711952;23;20028;-52
2021/11/04 02:32:05;;;;;;;0.00;0.00;;;4.90;99.90;;;;;;25712051;23;20024;-52
2021/11/04 02:42:09;;;;;;;516.47;23.45;;;5.20;99.90;;;;;;25711764;23;20489;-50
2021/11/04 02:52:12;;;;;;;559.90;23.80;;;5.20;99.90;;;;;;25712979;23;20013;-50
2021/11/04 03:02:15;;;;;;;135.38;7.35;;;5.20;99.90;;;;;;25711151;23;20095;-53
2021/11/04 03:12:18;;;;;;;791.75;32.35;;;5.10;99.90;;;;;;25685329;23;20087;-53
2021/11/04 03:22:22;;;;;;;448.27;16.77;;;5.10;99.90;;;;;;25685295;23;20514;-54
2021/11/04 03:32:25;;;;;;;112.05;4.47;;;5.10;99.90;;;;;;25710200;23;20020;-50
2021/11/04 03:42:29;;;;;;;0.10;0.00;;;5.10;99.90;;;;;;25710532;23;20012;-54
2021/11/04 03:52:34;;;;;;;0.00;0.00;;;4.60;99.90;;;;;;25709930;23;20049;-50
2021/11/04 04:02:38;;;;;;;0.17;0.10;;;4.00;99.90;;;;;;25709350;23;20403;-53
2021/11/04 04:12:40;;;;;;;269.08;9.57;;;3.80;99.90;;;;;;25683601;23;20008;-52
2021/11/04 04:22:44;;;;;;;274.48;12.13;;;4.10;99.90;;;;;;25727736;23;20024;-51
2021/11/04 04:32:47;;;;;;;2.85;0.52;;;4.10;99.90;;;;;;25709305;23;20025;-50
2021/11/04 04:42:49;;;;;;;278.23;14.52;;;4.00;99.90;;;;;;25713078;23;20023;-49
2021/11/04 04:52:52;;;;;;;1.10;0.60;;;4.00;99.90;;;;;;25716154;23;20097;-51
2021/11/04 05:02:55;;;;;;;289.05;11.98;;;4.00;99.90;;;;;;25715592;23;20031;-51
2021/11/04 05:12:57;;;;;;;0.20;0.10;;;3.90;99.90;;;;;;25690059;23;20020;-50
2021/11/04 05:23:01;;;;;;;0.32;0.20;;;3.70;99.90;;;;;;25690028;22;20120;-51
2021/11/04 05:33:03;;;;;;;0.63;0.20;;;3.60;99.90;;;;;;25689956;23;20375;-49
2021/11/04 05:43:06;;;;;;;0.90;0.20;;;3.50;99.90;;;;;;25713836;23;20017;-55
2021/11/04 05:53:09;;;;;;;0.43;0.10;;;3.60;99.90;;;;;;25688506;23;20074;-49
2021/11/04 06:03:13;;;;;;;0.40;0.20;;;3.60;99.90;;;;;;25713435;23;20020;-50
2021/11/04 06:13:16;;;;;;;0.60;0.10;;;3.60;99.90;;;;;;25712779;23;20017;-51
2021/11/04 06:23:19;;;;;;;0.43;0.20;;;3.50;99.90;;;;;;25687546;23;20024;-50
2021/11/04 06:33:22;;;;;;;0.20;0.10;;;3.40;99.90;;;;;;25687467;23;20016;-50
2021/11/04 06:43:25;;;;;;;0.52;0.10;;;3.40;99.90;;;;;;25662367;23;20016;-50
2021/11/04 06:53:28;;;;;;;0.90;0.40;;;3.40;99.90;;;;;;25687736;23;20040;-51
2021/11/04 07:03:36;;;;;;;2.38;1.20;;;3.30;99.90;;;;;;25661181;23;20094;-49
2021/11/04 07:13:40;;;;;;;15.75;2.72;;;3.40;99.90;;;;;;25685821;23;20338;-51
2021/11/04 07:23:59;;;;;;;3.85;2.50;;;4.20;99.90;;;;;;25684979;23;20103;-52
2021/11/04 07:34:05;;;;;;;2.90;1.60;;;4.30;99.90;;;;;;25711688;23;20017;-52
2021/11/04 07:44:07;;;;;;;4.32;2.53;;;4.60;99.90;;;;;;25685612;23;20066;-51
2021/11/04 07:54:10;;;;;;;2.97;1.75;;;4.60;99.90;;;;;;25684496;23;20012;-51
2021/11/04 08:04:16;;;;;;;4.22;2.42;;;4.70;99.90;;;;;;25684395;23;20008;-51
2021/11/04 08:14:18;;;;;;;3.53;2.10;;;4.60;99.90;;;;;;25685843;23;20021;-51
2021/11/04 08:24:21;;;;;;;4.93;2.65;;;4.70;99.90;;;;;;25692010;23;20020;-54
2021/11/04 08:34:25;;;;;;;5.47;3.25;;;4.50;99.90;;;;;;25717785;23;20067;-51
2021/11/04 08:44:28;;;;;;;4.03;2.10;;;5.70;99.90;;;;;;25716676;23;20013;-52
2021/11/04 08:54:32;;;;;;;1.92;1.15;;;7.30;99.90;;;;;;25716252;23;20008;-56
2021/11/04 09:04:35;;;;;;;0.98;0.50;;;8.60;99.90;;;;;;25693727;23;20154;-52
2021/11/04 09:14:38;;;;;;;1.60;0.95;;;8.90;99.90;;;;;;25695486;23;20054;-53
2021/11/04 09:24:41;;;;;;;1.95;1.33;;;8.10;99.90;;;;;;25692417;23;20046;-51
2021/11/04 09:34:45;;;;;;;2.60;2.00;;;7.40;99.90;;;;;;25715745;23;20055;-51
2021/11/04 09:44:49;;;;;;;55.38;4.90;;;6.70;99.90;;;;;;25665020;23;20013;-51
2021/11/04 09:54:54;;;;;;;67.43;4.38;;;6.20;99.90;;;;;;25715483;23;20016;-51
2021/11/04 10:05:23;;;;;;;361.60;19.92;;;5.80;99.90;;;;;;25690000;23;20012;-51
2021/11/04 10:15:29;;;;;;;311.47;13.67;;;5.70;99.90;;;;;;25685391;23;20094;-52
2021/11/04 10:25:32;;;;;;;737.35;29.67;;;5.40;99.90;;;;;;25714009;23;20508;-51
2021/11/04 10:35:35;;;;;;;743.63;31.95;;;5.00;99.90;;;;;;25664969;23;20016;-52
2021/11/04 10:45:38;;;;;;;735.80;30.85;;;4.70;99.90;;;;;;25714395;22;20422;-52
2021/11/04 10:55:41;;;;;;;701.97;31.27;;;4.40;99.90;;;;;;25688957;23;20083;-57
2021/11/04 11:05:43;;;;;;;988.22;44.22;;;4.30;99.90;;;;;;25662823;23;20066;-52
2021/11/04 11:15:53;;;;;;;955.70;47.15;;;4.20;99.90;;;;;;25711133;23;20008;-53
2021/11/04 11:26:02;;;;;;;868.77;45.20;;;4.20;99.90;;;;;;25710131;23;20338;-50
2021/11/04 11:36:22;;;;;;;612.95;29.33;;;4.40;99.90;;;;;;25711439;23;20472;-51
2021/11/04 11:46:26;;;;;;;1008.50;48.85;;;4.60;99.90;;;;;;25709526;23;20055;-53
2021/11/04 11:56:30;;;;;;;895.38;38.25;;;4.70;99.90;;;;;;25684248;23;20013;-54
2021/11/04 12:06:36;;;;;;;698.95;30.70;;;4.70;99.90;;;;;;25685094;23;20082;-51
2021/11/04 12:16:59;;;;;;;548.75;24.58;;;4.50;99.90;;;;;;25684250;23;20019;-53
2021/11/04 12:27:10;;;;;;;23.48;5.20;;;4.50;99.90;;;;;;25684042;23;20075;-54
2021/11/04 12:37:16;;;;;;;;;;;5.30;99.90;;;;;;25709933;23;20008;-59
2021/11/04 12:47:25;;;;;;;0.60;0.30;;;7.10;99.90;;;;;;25709096;23;19911;-54
2021/11/04 12:57:28;;;;;;;0.25;0.10;;;8.40;99.90;;;;;;25658774;23;20017;-55
2021/11/04 13:07:35;;;;;;;0.00;0.00;;;8.30;99.90;;;;;;25690260;23;20013;-56
2021/11/04 13:17:38;;;;;;;0.15;0.00;;;7.40;99.90;;;;;;25665890;23;20052;-51
2021/11/04 13:27:42;;;;;;;0.30;0.10;;;6.10;99.90;;;;;;25690116;23;20394;-52
2021/11/04 13:38:01;;;;;;;0.00;0.00;;;5.90;99.90;;;;;;25715883;23;20016;-52
2021/11/04 13:48:06;;;;;;;0.00;0.00;;;5.60;99.90;;;;;;25714642;23;20446;-51
2021/11/04 13:58:10;;;;;;;0.00;0.00;;;5.50;99.90;;;;;;25664949;23;20078;-51
2021/11/04 14:08:13;;;;;;;1.85;0.00;;;5.60;99.90;;;;;;25714308;23;20059;-53
2021/11/04 14:18:18;;;;;;;0.20;0.10;;;5.50;99.90;;;;;;25689728;23;20067;-52
2021/11/04 14:28:22;;;;;;;1.17;0.80;;;5.60;99.90;;;;;;25688726;23;20040;-53
2021/11/04 14:38:27;;;;;;;1.02;0.65;;;5.60;99.90;;;;;;25664225;23;20498;-56
2021/11/04 14:48:30;;;;;;;2.03;1.33;;;5.30;99.90;;;;;;25689169;23;20012;-55
2021/11/04 14:58:33;;;;;;;3.13;1.73;;;4.90;99.90;;;;;;25712460;23;20458;-52
2021/11/04 15:08:36;;;;;;;3.10;1.85;;;4.50;99.90;;;;;;25662291;23;20062;-53
2021/11/04 15:18:39;;;;;;;3.53;2.15;;;4.10;99.90;;;;;;25713268;23;20004;-52
2021/11/04 15:28:44;;;;;;;2.63;1.90;;;3.60;99.90;;;;;;25686074;23;20020;-54
2021/11/04 15:38:48;;;;;;;3.53;1.88;;;3.10;99.90;;;;;;25711275;23;20012;-52
2021/11/04 15:48:51;;;;;;;2.67;1.75;;;2.80;99.90;;;;;;25686203;23;20385;-53
2021/11/04 15:58:53;;;;;;;2.60;1.75;;;2.40;99.90;;;;;;25685318;23;20020;-53
2021/11/04 16:08:56;;;;;;;3.35;2.10;;;2.00;99.90;;;;;;25709548;23;20443;-54
2021/11/04 16:19:00;;;;;;;3.67;2.13;;;1.80;99.90;;;;;;25710563;23;20059;-51
2021/11/04 16:29:03;;;;;;;4.35;2.60;;;1.70;99.90;;;;;;25708088;23;20096;-53
2021/11/04 16:39:07;;;;;;;5.18;2.63;;;1.70;99.90;;;;;;25713270;23;20017;-53
2021/11/04 16:49:09;;;;;;;6.45;3.78;;;1.40;99.90;;;;;;25716282;23;20067;-51
2021/11/04 16:59:13;;;;;;;7.75;4.57;;;1.30;99.90;;;;;;25716193;23;20394;-53
2021/11/04 17:09:16;;;;;;;9.00;5.28;;;1.40;99.90;;;;;;25686052;23;20504;-51
2021/11/04 17:19:20;;;;;;;10.20;5.60;;;1.40;99.90;;;;;;25715561;23;20016;-51
2021/11/04 17:29:23;;;;;;;10.13;6.68;;;1.50;99.90;;;;;;25714678;23;20020;-53
2021/11/04 17:39:27;;;;;;;11.77;5.82;;;1.50;99.90;;;;;;25713990;23;20036;-51
2021/11/04 17:49:30;;;;;;;8.15;4.53;;;1.60;99.90;;;;;;25713595;23;20404;-52
2021/11/04 17:59:33;;;;;;;4.05;2.50;;;1.30;99.90;;;;;;25714194;23;20063;-51
2021/11/04 18:09:36;;;;;;;7.28;4.03;;;1.20;99.90;;;;;;25714664;23;20040;-54
2021/11/04 18:19:39;;;;;;;6.95;4.68;;;1.00;99.90;;;;;;25688061;23;20013;-54
2021/11/04 18:29:41;;;;;;;6.15;3.45;;;1.40;99.90;;;;;;25687408;23;20158;-55
2021/11/04 18:39:45;;;;;;;4.55;2.47;;;1.30;99.90;;;;;;25712560;23;20078;-56
2021/11/04 18:49:48;;;;;;;3.88;2.55;;;1.30;99.90;;;;;;25713263;23;20341;-52
2021/11/04 18:59:51;;;;;;;3.63;1.52;;;1.30;99.90;;;;;;25711117;23;20016;-51
2021/11/04 19:09:59;;;;;;;4.50;2.40;;;1.30;99.90;;;;;;25661613;23;20032;-51
2021/11/04 19:20:05;;;;;;;4.53;2.30;;;1.00;99.90;;;;;;25686250;23;20039;-52
2021/11/04 19:30:10;;;;;;;2.13;1.38;;;0.70;99.90;;;;;;25663345;23;20017;-51
2021/11/04 19:40:13;;;;;;;2.17;0.73;;;0.50;99.90;;;;;;25686331;23;20058;-51
2021/11/04 19:50:18;;;;;;;1.15;0.50;;;0.50;99.90;;;;;;25711283;23;20070;-51
2021/11/04 20:00:24;;;;;;;1.33;0.47;;;0.40;99.90;;;;;;25710663;23;20005;-52
2021/11/04 20:10:27;;;;;;;2.65;1.10;;;0.40;99.90;;;;;;25685074;23;20017;-50
2021/11/04 20:20:30;;;;;;;1.30;0.68;;;0.50;99.90;;;;;;25709756;23;20450;-54
2021/11/04 20:30:32;;;;;;;1.65;0.80;;;0.30;99.90;;;;;;25709814;23;20439;-55
2021/11/04 20:40:35;;;;;;;2.17;0.70;;;0.40;99.90;;;;;;25709699;23;20075;-59
2021/11/04 20:50:39;;;;;;;0.63;0.45;;;0.40;99.90;;;;;;25701551;23;20458;-63
2021/11/04 21:00:42;;;;;;;1.38;0.60;;;0.40;99.90;;;;;;25684397;23;20017;-62
2021/11/04 21:10:46;;;;;;;1.13;0.40;;;0.30;99.90;;;;;;25707993;23;20008;-62
2021/11/04 21:20:49;;;;;;;0.80;0.40;;;0.30;99.90;;;;;;25683750;23;20024;-60
2021/11/04 21:30:52;;;;;;;0.75;0.30;;;0.20;99.90;;;;;;25716477;23;20028;-63
2021/11/04 21:40:55;;;;;;;0.60;0.20;;;0.10;99.90;;;;;;25691139;23;20035;-63
2021/11/04 21:50:59;;;;;;;0.50;0.20;;;0.00;99.90;;;;;;25691757;23;20004;-61
2021/11/04 22:01:09;;;;;;;0.30;0.10;;;-0.10;99.90;;;;;;25761820;23;20020;-66
2021/11/04 22:11:13;;;;;;;0.10;0.10;;;0.00;99.90;;;;;;25766583;23;20008;-65
2021/11/04 22:21:21;;;;;;;0.30;0.30;;;-0.10;99.90;;;;;;25746892;23;20095;-64
2021/11/04 22:31:35;;;;;;;1.50;0.93;;;-0.20;99.90;;;;;;25689848;23;20086;-61
2021/11/04 22:41:38;;;;;;;2.05;0.88;;;0.00;99.90;;;;;;25714696;23;20040;-59
2021/11/04 22:51:43;;;;;;;1.10;0.50;;;0.00;99.90;;;;;;25715857;23;20524;-57
2021/11/04 23:01:46;;;;;;;0.70;0.30;;;0.00;99.90;;;;;;25689152;23;20067;-57
2021/11/04 23:11:49;;;;;;;1.73;0.50;;;0.10;99.90;;;;;;25713580;23;20048;-59
2021/11/04 23:21:52;;;;;;;0.45;0.20;;;0.00;99.90;;;;;;25713173;22;20016;-63
2021/11/04 23:31:55;;;;;;;0.63;0.20;;;0.00;99.90;;;;;;25687909;23;20013;-63
2021/11/04 23:41:57;;;;;;;0.90;0.30;;;-0.10;99.90;;;;;;25712404;23;20370;-64
2021/11/04 23:52:01;;;;;;;0.40;0.20;;;-0.10;99.90;;;;;;25686876;23;20032;-64
